sensor_id;sensor_type;location;lat;lon;timestamp;temperature;humidity
26803;DHT22;14378;51.796;5.808;2022-10-16T00:03:08;13.30;99.90
26803;DHT22;14378;51.796;5.808;2022-10-16T00:05:10;13.30;99.90
26803;DHT22;14378;51.796;5.808;2022-10-16T00:07:11;13.30;99.90
26803;DHT22;14378;51.796;5.808;2022-10-16T00:09:12;13.30;99.90
26803;DHT22;14378;51.796;5.808;2022-10-16T00:11:21;13.20;99.90
26803;DHT22;14378;51.796;5.808;2022-10-16T00:13:24;13.20;99.90
26803;DHT22;14378;51.796;5.808;2022-10-16T00:15:25;13.30;99.90
26803;DHT22;14378;51.796;5.808;2022-10-16T00:17:26;13.20;99.90
26803;DHT22;14378;51.796;5.808;2022-10-16T00:19:26;13.20;99.90
26803;DHT22;14378;51.796;5.808;2022-10-16T00:21:29;13.20;99.90
26803;DHT22;14378;51.796;5.808;2022-10-16T00:23:31;13.20;99.90
26803;DHT22;14378;51.796;5.808;2022-10-16T00:25:32;13.20;99.90
26803;DHT22;14378;51.796;5.808;2022-10-16T00:27:34;13.20;99.90
26803;DHT22;14378;51.796;5.808;2022-10-16T00:29:35;13.20;99.90
26803;DHT22;14378;51.796;5.808;2022-10-16T00:31:35;13.20;99.90
26803;DHT22;14378;51.796;5.808;2022-10-16T00:33:38;13.20;99.90
26803;DHT22;14378;51.796;5.808;2022-10-16T00:35:39;13.20;99.90
26803;DHT22;14378;51.796;5.808;2022-10-16T00:37:43;13.20;99.90
26803;DHT22;14378;51.796;5.808;2022-10-16T00:39:44;13.20;99.90
26803;DHT22;14378;51.796;5.808;2022-10-16T00:41:45;13.20;99.90
26803;DHT22;14378;51.796;5.808;2022-10-16T00:43:47;13.20;99.90
26803;DHT22;14378;51.796;5.808;2022-10-16T00:45:48;13.20;99.90
26803;DHT22;14378;51.796;5.808;2022-10-16T00:47:50;13.10;99.90
26803;DHT22;14378;51.796;5.808;2022-10-16T00:49:59;13.10;99.90
26803;DHT22;14378;51.796;5.808;2022-10-16T00:52:02;13.10;99.90
26803;DHT22;14378;51.796;5.808;2022-10-16T00:54:06;13.10;99.90
26803;DHT22;14378;51.796;5.808;2022-10-16T00:56:08;13.10;99.90
26803;DHT22;14378;51.796;5.808;2022-10-16T00:58:09;13.10;99.90
26803;DHT22;14378;51.796;5.808;2022-10-16T01:00:16;13.10;99.90
26803;DHT22;14378;51.796;5.808;2022-10-16T01:02:17;13.10;99.90
26803;DHT22;14378;51.796;5.808;2022-10-16T01:04:19;13.10;99.90
26803;DHT22;14378;51.796;5.808;2022-10-16T01:06:23;13.10;99.90
26803;DHT22;14378;51.796;5.808;2022-10-16T01:08:38;13.00;99.90
26803;DHT22;14378;51.796;5.808;2022-10-16T01:17:57;13.00;99.90
26803;DHT22;14378;51.796;5.808;2022-10-16T01:22:23;12.90;99.90
26803;DHT22;14378;51.796;5.808;2022-10-16T01:24:46;12.90;99.90
26803;DHT22;14378;51.796;5.808;2022-10-16T01:27:14;12.90;99.90
26803;DHT22;14378;51.796;5.808;2022-10-16T01:29:26;12.90;99.90
26803;DHT22;14378;51.796;5.808;2022-10-16T01:31:32;12.90;99.90
26803;DHT22;14378;51.796;5.808;2022-10-16T01:33:47;12.90;99.90
26803;DHT22;14378;51.796;5.808;2022-10-16T01:35:56;12.90;99.90
26803;DHT22;14378;51.796;5.808;2022-10-16T01:40:07;12.90;99.90
26803;DHT22;14378;51.796;5.808;2022-10-16T01:42:19;12.90;99.90
26803;DHT22;14378;51.796;5.808;2022-10-16T01:44:25;12.90;99.90
26803;DHT22;14378;51.796;5.808;2022-10-16T01:46:30;13.00;99.90
26803;DHT22;14378;51.796;5.808;2022-10-16T01:48:33;12.90;99.90
26803;DHT22;14378;51.796;5.808;2022-10-16T01:50:37;13.00;99.90
26803;DHT22;14378;51.796;5.808;2022-10-16T01:52:43;13.00;99.90
26803;DHT22;14378;51.796;5.808;2022-10-16T01:54:47;13.00;99.90
26803;DHT22;14378;51.796;5.808;2022-10-16T01:56:50;13.00;99.90
26803;DHT22;14378;51.796;5.808;2022-10-16T01:59:00;13.00;99.90
26803;DHT22;14378;51.796;5.808;2022-10-16T02:03:05;13.00;99.90
26803;DHT22;14378;51.796;5.808;2022-10-16T02:05:34;13.00;99.90
26803;DHT22;14378;51.796;5.808;2022-10-16T02:07:37;13.10;99.90
26803;DHT22;14378;51.796;5.808;2022-10-16T02:09:38;13.10;99.90
26803;DHT22;14378;51.796;5.808;2022-10-16T02:11:39;13.10;99.90
26803;DHT22;14378;51.796;5.808;2022-10-16T02:13:58;13.10;99.90
26803;DHT22;14378;51.796;5.808;2022-10-16T02:16:01;13.20;99.90
26803;DHT22;14378;51.796;5.808;2022-10-16T02:18:03;13.20;99.90
26803;DHT22;14378;51.796;5.808;2022-10-16T02:20:05;13.20;99.90
26803;DHT22;14378;51.796;5.808;2022-10-16T02:22:09;13.20;99.90
26803;DHT22;14378;51.796;5.808;2022-10-16T02:26:27;13.30;99.90
26803;DHT22;14378;51.796;5.808;2022-10-16T02:28:44;13.30;99.90
26803;DHT22;14378;51.796;5.808;2022-10-16T02:30:55;13.30;99.90
26803;DHT22;14378;51.796;5.808;2022-10-16T02:32:59;13.30;99.90
26803;DHT22;14378;51.796;5.808;2022-10-16T02:35:01;13.40;99.90
26803;DHT22;14378;51.796;5.808;2022-10-16T02:37:04;13.40;99.90
26803;DHT22;14378;51.796;5.808;2022-10-16T02:39:06;13.40;99.90
26803;DHT22;14378;51.796;5.808;2022-10-16T02:41:08;13.40;99.90
26803;DHT22;14378;51.796;5.808;2022-10-16T02:43:09;13.40;99.90
26803;DHT22;14378;51.796;5.808;2022-10-16T02:45:11;13.40;99.90
26803;DHT22;14378;51.796;5.808;2022-10-16T02:47:12;13.40;99.90
26803;DHT22;14378;51.796;5.808;2022-10-16T02:49:14;13.40;99.90
26803;DHT22;14378;51.796;5.808;2022-10-16T02:51:14;13.40;99.90
26803;DHT22;14378;51.796;5.808;2022-10-16T02:53:15;13.40;99.90
26803;DHT22;14378;51.796;5.808;2022-10-16T02:55:16;13.40;99.90
26803;DHT22;14378;51.796;5.808;2022-10-16T02:57:17;13.40;99.90
26803;DHT22;14378;51.796;5.808;2022-10-16T02:59:18;13.40;99.90
26803;DHT22;14378;51.796;5.808;2022-10-16T03:01:20;13.40;99.90
26803;DHT22;14378;51.796;5.808;2022-10-16T03:03:20;13.40;99.90
26803;DHT22;14378;51.796;5.808;2022-10-16T03:05:22;13.40;99.90
26803;DHT22;14378;51.796;5.808;2022-10-16T03:07:23;13.40;99.90
26803;DHT22;14378;51.796;5.808;2022-10-16T03:09:24;13.30;99.90
26803;DHT22;14378;51.796;5.808;2022-10-16T03:11:25;13.30;99.90
26803;DHT22;14378;51.796;5.808;2022-10-16T03:13:26;13.30;99.90
26803;DHT22;14378;51.796;5.808;2022-10-16T03:15:27;13.30;99.90
26803;DHT22;14378;51.796;5.808;2022-10-16T03:17:32;13.30;99.90
26803;DHT22;14378;51.796;5.808;2022-10-16T03:19:33;13.30;99.90
26803;DHT22;14378;51.796;5.808;2022-10-16T03:21:33;13.30;99.90
26803;DHT22;14378;51.796;5.808;2022-10-16T03:23:35;13.30;99.90
26803;DHT22;14378;51.796;5.808;2022-10-16T03:25:37;13.20;99.90
26803;DHT22;14378;51.796;5.808;2022-10-16T03:27:39;13.20;99.90
26803;DHT22;14378;51.796;5.808;2022-10-16T03:29:40;13.30;99.90
26803;DHT22;14378;51.796;5.808;2022-10-16T03:31:41;13.20;99.90
26803;DHT22;14378;51.796;5.808;2022-10-16T03:33:44;13.20;99.90
26803;DHT22;14378;51.796;5.808;2022-10-16T03:35:52;13.20;99.90
26803;DHT22;14378;51.796;5.808;2022-10-16T03:37:54;13.20;99.90
26803;DHT22;14378;51.796;5.808;2022-10-16T03:39:55;13.20;99.90
26803;DHT22;14378;51.796;5.808;2022-10-16T03:41:56;13.20;99.90
26803;DHT22;14378;51.796;5.808;2022-10-16T03:43:57;13.20;99.90
26803;DHT22;14378;51.796;5.808;2022-10-16T03:45:58;13.20;99.90
26803;DHT22;14378;51.796;5.808;2022-10-16T03:47:59;13.20;99.90
26803;DHT22;14378;51.796;5.808;2022-10-16T03:50:00;13.20;99.90
26803;DHT22;14378;51.796;5.808;2022-10-16T03:52:01;13.20;99.90
26803;DHT22;14378;51.796;5.808;2022-10-16T03:54:02;13.20;99.90
26803;DHT22;14378;51.796;5.808;2022-10-16T03:56:03;13.20;99.90
26803;DHT22;14378;51.796;5.808;2022-10-16T03:58:04;13.20;99.90
26803;DHT22;14378;51.796;5.808;2022-10-16T04:00:05;13.20;99.90
26803;DHT22;14378;51.796;5.808;2022-10-16T04:02:13;13.20;99.90
26803;DHT22;14378;51.796;5.808;2022-10-16T04:04:13;13.20;99.90
26803;DHT22;14378;51.796;5.808;2022-10-16T04:06:15;13.20;99.90
26803;DHT22;14378;51.796;5.808;2022-10-16T04:08:16;13.20;99.90
26803;DHT22;14378;51.796;5.808;2022-10-16T04:10:17;13.10;99.90
26803;DHT22;14378;51.796;5.808;2022-10-16T04:12:18;13.10;99.90
26803;DHT22;14378;51.796;5.808;2022-10-16T04:14:19;13.20;99.90
26803;DHT22;14378;51.796;5.808;2022-10-16T04:16:20;13.10;99.90
26803;DHT22;14378;51.796;5.808;2022-10-16T04:18:21;13.10;99.90
26803;DHT22;14378;51.796;5.808;2022-10-16T04:20:27;13.10;99.90
26803;DHT22;14378;51.796;5.808;2022-10-16T04:22:29;13.10;99.90
26803;DHT22;14378;51.796;5.808;2022-10-16T04:24:30;13.10;99.90
26803;DHT22;14378;51.796;5.808;2022-10-16T04:26:31;13.10;99.90
26803;DHT22;14378;51.796;5.808;2022-10-16T04:28:32;13.10;99.90
26803;DHT22;14378;51.796;5.808;2022-10-16T04:30:33;13.10;99.90
26803;DHT22;14378;51.796;5.808;2022-10-16T04:32:34;13.10;99.90
26803;DHT22;14378;51.796;5.808;2022-10-16T04:34:35;13.10;99.90
26803;DHT22;14378;51.796;5.808;2022-10-16T04:36:36;13.10;99.90
26803;DHT22;14378;51.796;5.808;2022-10-16T04:38:37;13.10;99.90
26803;DHT22;14378;51.796;5.808;2022-10-16T04:40:41;13.10;99.90
26803;DHT22;14378;51.796;5.808;2022-10-16T04:42:42;13.10;99.90
26803;DHT22;14378;51.796;5.808;2022-10-16T04:44:43;13.10;99.90
26803;DHT22;14378;51.796;5.808;2022-10-16T04:46:44;13.10;99.90
26803;DHT22;14378;51.796;5.808;2022-10-16T04:48:45;13.10;99.90
26803;DHT22;14378;51.796;5.808;2022-10-16T04:50:47;13.10;99.90
26803;DHT22;14378;51.796;5.808;2022-10-16T04:52:48;13.10;99.90
26803;DHT22;14378;51.796;5.808;2022-10-16T04:54:49;13.10;99.90
26803;DHT22;14378;51.796;5.808;2022-10-16T04:56:50;13.10;99.90
26803;DHT22;14378;51.796;5.808;2022-10-16T04:58:53;13.10;99.90
26803;DHT22;14378;51.796;5.808;2022-10-16T05:00:54;13.10;99.90
26803;DHT22;14378;51.796;5.808;2022-10-16T05:02:55;13.10;99.90
26803;DHT22;14378;51.796;5.808;2022-10-16T05:04:57;13.10;99.90
26803;DHT22;14378;51.796;5.808;2022-10-16T05:06:58;13.10;99.90
26803;DHT22;14378;51.796;5.808;2022-10-16T05:09:02;13.00;99.90
26803;DHT22;14378;51.796;5.808;2022-10-16T05:11:03;13.00;99.90
26803;DHT22;14378;51.796;5.808;2022-10-16T05:13:04;13.00;99.90
26803;DHT22;14378;51.796;5.808;2022-10-16T05:15:05;13.00;99.90
26803;DHT22;14378;51.796;5.808;2022-10-16T05:17:06;13.00;99.90
26803;DHT22;14378;51.796;5.808;2022-10-16T05:19:07;13.00;99.90
26803;DHT22;14378;51.796;5.808;2022-10-16T05:21:08;13.00;99.90
26803;DHT22;14378;51.796;5.808;2022-10-16T05:23:09;13.00;99.90
26803;DHT22;14378;51.796;5.808;2022-10-16T05:25:13;13.00;99.90
26803;DHT22;14378;51.796;5.808;2022-10-16T05:27:14;13.00;99.90
26803;DHT22;14378;51.796;5.808;2022-10-16T05:29:19;13.00;99.90
26803;DHT22;14378;51.796;5.808;2022-10-16T05:31:20;13.00;99.90
26803;DHT22;14378;51.796;5.808;2022-10-16T05:33:24;13.00;99.90
26803;DHT22;14378;51.796;5.808;2022-10-16T05:35:25;12.90;99.90
26803;DHT22;14378;51.796;5.808;2022-10-16T05:37:27;12.90;99.90
26803;DHT22;14378;51.796;5.808;2022-10-16T05:39:28;12.90;99.90
26803;DHT22;14378;51.796;5.808;2022-10-16T05:41:29;12.80;99.90
26803;DHT22;14378;51.796;5.808;2022-10-16T05:43:30;12.80;99.90
26803;DHT22;14378;51.796;5.808;2022-10-16T05:45:32;12.80;99.90
26803;DHT22;14378;51.796;5.808;2022-10-16T05:47:33;12.80;99.90
26803;DHT22;14378;51.796;5.808;2022-10-16T05:49:34;12.80;99.90
26803;DHT22;14378;51.796;5.808;2022-10-16T05:51:35;12.80;99.90
26803;DHT22;14378;51.796;5.808;2022-10-16T05:53:38;12.80;99.90
26803;DHT22;14378;51.796;5.808;2022-10-16T05:55:39;12.80;99.90
26803;DHT22;14378;51.796;5.808;2022-10-16T05:57:40;12.80;99.90
26803;DHT22;14378;51.796;5.808;2022-10-16T05:59:41;12.70;99.90
26803;DHT22;14378;51.796;5.808;2022-10-16T06:01:48;12.70;99.90
26803;DHT22;14378;51.796;5.808;2022-10-16T06:03:51;12.70;99.90
26803;DHT22;14378;51.796;5.808;2022-10-16T06:05:53;12.70;99.90
26803;DHT22;14378;51.796;5.808;2022-10-16T06:07:54;12.70;99.90
26803;DHT22;14378;51.796;5.808;2022-10-16T06:09:55;12.70;99.90
26803;DHT22;14378;51.796;5.808;2022-10-16T06:11:56;12.70;99.90
26803;DHT22;14378;51.796;5.808;2022-10-16T06:14:00;12.70;99.90
26803;DHT22;14378;51.796;5.808;2022-10-16T06:16:03;12.60;99.90
26803;DHT22;14378;51.796;5.808;2022-10-16T06:18:05;12.60;99.90
26803;DHT22;14378;51.796;5.808;2022-10-16T06:20:06;12.60;99.90
26803;DHT22;14378;51.796;5.808;2022-10-16T06:22:07;12.60;99.90
26803;DHT22;14378;51.796;5.808;2022-10-16T06:24:11;12.60;99.90
26803;DHT22;14378;51.796;5.808;2022-10-16T06:26:16;12.60;99.90
26803;DHT22;14378;51.796;5.808;2022-10-16T06:28:17;12.50;99.90
26803;DHT22;14378;51.796;5.808;2022-10-16T06:30:25;12.60;99.90
26803;DHT22;14378;51.796;5.808;2022-10-16T06:32:27;12.60;99.90
26803;DHT22;14378;51.796;5.808;2022-10-16T06:34:28;12.60;99.90
26803;DHT22;14378;51.796;5.808;2022-10-16T06:36:29;12.60;99.90
26803;DHT22;14378;51.796;5.808;2022-10-16T06:38:36;12.60;99.90
26803;DHT22;14378;51.796;5.808;2022-10-16T06:40:37;12.60;99.90
26803;DHT22;14378;51.796;5.808;2022-10-16T06:42:38;12.60;99.90
26803;DHT22;14378;51.796;5.808;2022-10-16T06:44:38;12.60;99.90
26803;DHT22;14378;51.796;5.808;2022-10-16T06:46:40;12.60;99.90
26803;DHT22;14378;51.796;5.808;2022-10-16T06:48:41;12.60;99.90
26803;DHT22;14378;51.796;5.808;2022-10-16T06:50:42;12.70;99.90
26803;DHT22;14378;51.796;5.808;2022-10-16T06:52:42;12.70;99.90
26803;DHT22;14378;51.796;5.808;2022-10-16T06:54:43;12.80;99.90
26803;DHT22;14378;51.796;5.808;2022-10-16T06:56:44;12.80;99.90
26803;DHT22;14378;51.796;5.808;2022-10-16T06:58:46;12.80;99.90
26803;DHT22;14378;51.796;5.808;2022-10-16T07:00:54;12.90;99.90
26803;DHT22;14378;51.796;5.808;2022-10-16T07:02:55;12.90;99.90
26803;DHT22;14378;51.796;5.808;2022-10-16T07:04:57;13.00;99.90
26803;DHT22;14378;51.796;5.808;2022-10-16T07:07:00;13.10;99.90
26803;DHT22;14378;51.796;5.808;2022-10-16T07:09:04;13.20;99.90
26803;DHT22;14378;51.796;5.808;2022-10-16T07:11:11;13.20;99.90
26803;DHT22;14378;51.796;5.808;2022-10-16T07:13:16;13.30;99.90
26803;DHT22;14378;51.796;5.808;2022-10-16T07:15:17;13.40;99.90
26803;DHT22;14378;51.796;5.808;2022-10-16T07:17:18;13.40;99.90
26803;DHT22;14378;51.796;5.808;2022-10-16T07:19:18;13.50;99.90
26803;DHT22;14378;51.796;5.808;2022-10-16T07:21:20;13.50;99.90
26803;DHT22;14378;51.796;5.808;2022-10-16T07:23:23;13.60;99.90
26803;DHT22;14378;51.796;5.808;2022-10-16T07:25:24;13.60;99.90
26803;DHT22;14378;51.796;5.808;2022-10-16T07:27:25;13.70;99.90
26803;DHT22;14378;51.796;5.808;2022-10-16T07:29:27;13.70;99.90
26803;DHT22;14378;51.796;5.808;2022-10-16T07:31:28;13.70;99.90
26803;DHT22;14378;51.796;5.808;2022-10-16T07:33:29;13.80;99.90
26803;DHT22;14378;51.796;5.808;2022-10-16T07:35:30;13.80;99.90
26803;DHT22;14378;51.796;5.808;2022-10-16T07:37:31;13.80;99.90
26803;DHT22;14378;51.796;5.808;2022-10-16T07:39:32;13.90;99.90
26803;DHT22;14378;51.796;5.808;2022-10-16T07:41:36;13.90;99.90
26803;DHT22;14378;51.796;5.808;2022-10-16T07:43:37;13.90;99.90
26803;DHT22;14378;51.796;5.808;2022-10-16T07:45:47;13.90;99.90
26803;DHT22;14378;51.796;5.808;2022-10-16T07:47:49;13.90;99.90
26803;DHT22;14378;51.796;5.808;2022-10-16T07:49:49;14.00;99.90
26803;DHT22;14378;51.796;5.808;2022-10-16T07:51:50;14.00;99.90
26803;DHT22;14378;51.796;5.808;2022-10-16T07:53:52;14.00;99.90
26803;DHT22;14378;51.796;5.808;2022-10-16T07:56:05;14.00;99.90
26803;DHT22;14378;51.796;5.808;2022-10-16T07:58:06;14.10;99.90
26803;DHT22;14378;51.796;5.808;2022-10-16T08:00:08;14.20;99.90
26803;DHT22;14378;51.796;5.808;2022-10-16T08:02:14;14.20;99.90
26803;DHT22;14378;51.796;5.808;2022-10-16T08:04:15;14.30;99.90
26803;DHT22;14378;51.796;5.808;2022-10-16T08:06:17;14.30;99.90
26803;DHT22;14378;51.796;5.808;2022-10-16T08:08:19;14.40;99.90
26803;DHT22;14378;51.796;5.808;2022-10-16T08:10:24;14.40;99.90
26803;DHT22;14378;51.796;5.808;2022-10-16T08:12:26;14.50;99.90
26803;DHT22;14378;51.796;5.808;2022-10-16T08:14:27;14.50;99.90
26803;DHT22;14378;51.796;5.808;2022-10-16T08:16:28;14.60;99.90
26803;DHT22;14378;51.796;5.808;2022-10-16T08:18:28;14.70;99.90
26803;DHT22;14378;51.796;5.808;2022-10-16T08:20:30;14.70;99.90
26803;DHT22;14378;51.796;5.808;2022-10-16T08:22:31;14.70;99.90
26803;DHT22;14378;51.796;5.808;2022-10-16T08:24:32;14.80;99.90
26803;DHT22;14378;51.796;5.808;2022-10-16T08:26:38;14.80;99.90
26803;DHT22;14378;51.796;5.808;2022-10-16T08:28:39;14.90;99.90
26803;DHT22;14378;51.796;5.808;2022-10-16T08:30:40;14.90;99.90
26803;DHT22;14378;51.796;5.808;2022-10-16T08:32:42;15.00;99.90
26803;DHT22;14378;51.796;5.808;2022-10-16T08:34:43;15.10;99.90
26803;DHT22;14378;51.796;5.808;2022-10-16T08:36:44;15.20;99.90
26803;DHT22;14378;51.796;5.808;2022-10-16T08:38:48;15.20;99.90
26803;DHT22;14378;51.796;5.808;2022-10-16T08:40:50;15.20;99.90
26803;DHT22;14378;51.796;5.808;2022-10-16T08:45:13;15.30;99.90
26803;DHT22;14378;51.796;5.808;2022-10-16T08:49:32;15.50;99.90
26803;DHT22;14378;51.796;5.808;2022-10-16T08:51:36;15.50;99.90
26803;DHT22;14378;51.796;5.808;2022-10-16T08:53:44;15.60;99.90
26803;DHT22;14378;51.796;5.808;2022-10-16T08:55:50;15.60;99.90
26803;DHT22;14378;51.796;5.808;2022-10-16T08:57:53;15.60;99.90
26803;DHT22;14378;51.796;5.808;2022-10-16T08:59:54;15.70;99.90
26803;DHT22;14378;51.796;5.808;2022-10-16T09:02:01;15.80;99.90
26803;DHT22;14378;51.796;5.808;2022-10-16T09:06:52;15.90;99.90
26803;DHT22;14378;51.796;5.808;2022-10-16T09:20:56;16.60;99.90
26803;DHT22;14378;51.796;5.808;2022-10-16T09:25:15;16.80;99.90
26803;DHT22;14378;51.796;5.808;2022-10-16T09:27:16;16.90;99.90
26803;DHT22;14378;51.796;5.808;2022-10-16T09:29:19;17.00;99.90
26803;DHT22;14378;51.796;5.808;2022-10-16T09:31:23;17.00;99.90
26803;DHT22;14378;51.796;5.808;2022-10-16T09:33:30;17.10;99.90
26803;DHT22;14378;51.796;5.808;2022-10-16T09:35:42;17.10;99.90
26803;DHT22;14378;51.796;5.808;2022-10-16T09:37:46;17.20;99.90
26803;DHT22;14378;51.796;5.808;2022-10-16T09:39:53;17.40;99.90
26803;DHT22;14378;51.796;5.808;2022-10-16T09:41:55;17.40;99.90
26803;DHT22;14378;51.796;5.808;2022-10-16T09:43:59;17.50;99.90
26803;DHT22;14378;51.796;5.808;2022-10-16T09:48:54;17.80;99.90
26803;DHT22;14378;51.796;5.808;2022-10-16T09:51:00;18.00;99.90
26803;DHT22;14378;51.796;5.808;2022-10-16T09:53:08;18.00;99.90
26803;DHT22;14378;51.796;5.808;2022-10-16T09:55:17;17.90;99.90
26803;DHT22;14378;51.796;5.808;2022-10-16T09:57:18;17.90;99.90
26803;DHT22;14378;51.796;5.808;2022-10-16T09:59:21;17.90;99.90
26803;DHT22;14378;51.796;5.808;2022-10-16T10:01:49;17.90;99.90
26803;DHT22;14378;51.796;5.808;2022-10-16T10:03:56;18.10;99.90
26803;DHT22;14378;51.796;5.808;2022-10-16T10:06:17;18.20;99.90
26803;DHT22;14378;51.796;5.808;2022-10-16T10:08:19;18.30;99.90
26803;DHT22;14378;51.796;5.808;2022-10-16T10:10:26;18.40;99.90
26803;DHT22;14378;51.796;5.808;2022-10-16T10:12:28;18.60;99.90
26803;DHT22;14378;51.796;5.808;2022-10-16T10:14:39;18.80;99.90
26803;DHT22;14378;51.796;5.808;2022-10-16T10:16:41;18.80;99.90
26803;DHT22;14378;51.796;5.808;2022-10-16T10:18:42;19.00;99.90
26803;DHT22;14378;51.796;5.808;2022-10-16T10:20:43;19.10;99.90
26803;DHT22;14378;51.796;5.808;2022-10-16T10:22:45;19.10;99.90
26803;DHT22;14378;51.796;5.808;2022-10-16T10:27:15;19.20;99.90
26803;DHT22;14378;51.796;5.808;2022-10-16T10:29:44;19.30;99.90
26803;DHT22;14378;51.796;5.808;2022-10-16T10:34:16;19.60;99.90
26803;DHT22;14378;51.796;5.808;2022-10-16T10:45:58;20.10;99.90
26803;DHT22;14378;51.796;5.808;2022-10-16T10:55:19;20.30;99.90
26803;DHT22;14378;51.796;5.808;2022-10-16T10:58:21;20.20;99.90
26803;DHT22;14378;51.796;5.808;2022-10-16T11:02:43;19.70;99.90
26803;DHT22;14378;51.796;5.808;2022-10-16T11:07:32;19.60;99.90
26803;DHT22;14378;51.796;5.808;2022-10-16T11:09:45;19.60;99.90
26803;DHT22;14378;51.796;5.808;2022-10-16T11:12:01;19.70;99.90
26803;DHT22;14378;51.796;5.808;2022-10-16T11:14:29;19.70;99.90
26803;DHT22;14378;51.796;5.808;2022-10-16T11:16:48;19.70;99.90
26803;DHT22;14378;51.796;5.808;2022-10-16T11:21:22;19.50;99.90
26803;DHT22;14378;51.796;5.808;2022-10-16T11:23:48;19.40;99.90
26803;DHT22;14378;51.796;5.808;2022-10-16T11:26:04;19.40;99.90
26803;DHT22;14378;51.796;5.808;2022-10-16T11:28:09;19.30;99.90
26803;DHT22;14378;51.796;5.808;2022-10-16T11:30:42;19.50;99.90
26803;DHT22;14378;51.796;5.808;2022-10-16T11:35:25;20.00;99.90
26803;DHT22;14378;51.796;5.808;2022-10-16T11:37:36;20.10;99.90
26803;DHT22;14378;51.796;5.808;2022-10-16T11:39:43;20.00;99.90
26803;DHT22;14378;51.796;5.808;2022-10-16T11:46:09;19.80;99.90
26803;DHT22;14378;51.796;5.808;2022-10-16T11:48:27;19.50;99.90
26803;DHT22;14378;51.796;5.808;2022-10-16T11:55:17;20.10;99.90
26803;DHT22;14378;51.796;5.808;2022-10-16T11:57:53;20.40;99.90
26803;DHT22;14378;51.796;5.808;2022-10-16T12:00:24;20.80;99.90
26803;DHT22;14378;51.796;5.808;2022-10-16T12:03:48;21.10;99.90
26803;DHT22;14378;51.796;5.808;2022-10-16T12:07:31;21.50;99.90
26803;DHT22;14378;51.796;5.808;2022-10-16T12:09:40;21.60;99.90
26803;DHT22;14378;51.796;5.808;2022-10-16T12:11:42;21.90;99.90
26803;DHT22;14378;51.796;5.808;2022-10-16T12:13:42;22.00;99.90
26803;DHT22;14378;51.796;5.808;2022-10-16T12:15:44;22.00;99.90
26803;DHT22;14378;51.796;5.808;2022-10-16T12:17:44;22.10;99.90
26803;DHT22;14378;51.796;5.808;2022-10-16T12:20:00;22.10;99.90
26803;DHT22;14378;51.796;5.808;2022-10-16T12:22:02;21.90;99.90
26803;DHT22;14378;51.796;5.808;2022-10-16T12:24:05;21.90;99.90
26803;DHT22;14378;51.796;5.808;2022-10-16T12:26:06;21.90;99.90
26803;DHT22;14378;51.796;5.808;2022-10-16T12:28:20;21.80;99.90
26803;DHT22;14378;51.796;5.808;2022-10-16T12:30:24;21.70;99.90
26803;DHT22;14378;51.796;5.808;2022-10-16T12:32:36;21.50;99.90
26803;DHT22;14378;51.796;5.808;2022-10-16T12:34:42;21.30;99.90
26803;DHT22;14378;51.796;5.808;2022-10-16T12:36:43;21.20;99.90
26803;DHT22;14378;51.796;5.808;2022-10-16T12:38:51;21.10;99.90
26803;DHT22;14378;51.796;5.808;2022-10-16T12:41:02;21.00;99.90
26803;DHT22;14378;51.796;5.808;2022-10-16T12:45:33;20.60;99.90
26803;DHT22;14378;51.796;5.808;2022-10-16T12:47:38;20.40;99.90
26803;DHT22;14378;51.796;5.808;2022-10-16T12:49:49;20.30;99.90
26803;DHT22;14378;51.796;5.808;2022-10-16T12:51:50;20.30;99.90
26803;DHT22;14378;51.796;5.808;2022-10-16T12:54:47;20.10;99.90
26803;DHT22;14378;51.796;5.808;2022-10-16T12:56:32;20.00;99.90
26803;DHT22;14378;51.796;5.808;2022-10-16T13:01:09;20.00;99.90
26803;DHT22;14378;51.796;5.808;2022-10-16T13:03:37;20.20;99.90
26803;DHT22;14378;51.796;5.808;2022-10-16T13:10:27;20.70;99.90
26803;DHT22;14378;51.796;5.808;2022-10-16T13:16:56;21.20;99.90
26803;DHT22;14378;51.796;5.808;2022-10-16T13:19:28;21.40;99.90
26803;DHT22;14378;51.796;5.808;2022-10-16T13:21:42;21.50;99.90
26803;DHT22;14378;51.796;5.808;2022-10-16T13:26:54;21.70;99.90
26803;DHT22;14378;51.796;5.808;2022-10-16T13:28:47;21.80;99.90
26803;DHT22;14378;51.796;5.808;2022-10-16T13:30:53;21.90;99.90
26803;DHT22;14378;51.796;5.808;2022-10-16T13:33:13;22.10;99.90
26803;DHT22;14378;51.796;5.808;2022-10-16T13:35:27;22.30;99.90
26803;DHT22;14378;51.796;5.808;2022-10-16T13:37:28;22.50;99.90
26803;DHT22;14378;51.796;5.808;2022-10-16T13:39:30;22.70;99.90
26803;DHT22;14378;51.796;5.808;2022-10-16T13:41:31;22.80;99.90
26803;DHT22;14378;51.796;5.808;2022-10-16T13:43:34;23.00;99.90
26803;DHT22;14378;51.796;5.808;2022-10-16T13:45:35;23.10;99.90
26803;DHT22;14378;51.796;5.808;2022-10-16T13:47:36;23.20;99.90
26803;DHT22;14378;51.796;5.808;2022-10-16T13:49:36;23.30;99.90
26803;DHT22;14378;51.796;5.808;2022-10-16T13:51:41;23.30;99.90
26803;DHT22;14378;51.796;5.808;2022-10-16T13:53:44;23.40;99.90
26803;DHT22;14378;51.796;5.808;2022-10-16T13:55:45;23.40;99.90
26803;DHT22;14378;51.796;5.808;2022-10-16T13:57:46;23.20;99.90
26803;DHT22;14378;51.796;5.808;2022-10-16T13:59:47;22.90;99.90
26803;DHT22;14378;51.796;5.808;2022-10-16T14:01:48;22.90;99.90
26803;DHT22;14378;51.796;5.808;2022-10-16T14:03:50;22.80;99.90
26803;DHT22;14378;51.796;5.808;2022-10-16T14:05:55;22.60;99.90
26803;DHT22;14378;51.796;5.808;2022-10-16T14:07:57;22.50;99.90
26803;DHT22;14378;51.796;5.808;2022-10-16T14:10:05;22.40;99.90
26803;DHT22;14378;51.796;5.808;2022-10-16T14:12:11;22.20;99.90
26803;DHT22;14378;51.796;5.808;2022-10-16T14:14:13;22.00;99.90
26803;DHT22;14378;51.796;5.808;2022-10-16T14:16:23;22.00;99.90
26803;DHT22;14378;51.796;5.808;2022-10-16T14:18:27;21.90;99.90
26803;DHT22;14378;51.796;5.808;2022-10-16T14:20:33;21.60;99.90
26803;DHT22;14378;51.796;5.808;2022-10-16T14:22:37;21.50;99.90
26803;DHT22;14378;51.796;5.808;2022-10-16T14:24:40;21.40;99.90
26803;DHT22;14378;51.796;5.808;2022-10-16T14:29:50;21.20;99.90
26803;DHT22;14378;51.796;5.808;2022-10-16T14:32:20;21.00;99.90
26803;DHT22;14378;51.796;5.808;2022-10-16T14:39:57;20.70;99.90
26803;DHT22;14378;51.796;5.808;2022-10-16T14:41:58;20.70;99.90
26803;DHT22;14378;51.796;5.808;2022-10-16T14:44:03;20.70;99.90
26803;DHT22;14378;51.796;5.808;2022-10-16T14:51:43;20.70;99.90
26803;DHT22;14378;51.796;5.808;2022-10-16T14:53:56;20.70;99.90
26803;DHT22;14378;51.796;5.808;2022-10-16T14:55:58;20.60;99.90
26803;DHT22;14378;51.796;5.808;2022-10-16T14:58:09;20.60;99.90
26803;DHT22;14378;51.796;5.808;2022-10-16T15:00:22;20.60;99.90
26803;DHT22;14378;51.796;5.808;2022-10-16T15:02:28;20.60;99.90
26803;DHT22;14378;51.796;5.808;2022-10-16T15:04:32;20.60;99.90